Time;durP1;ratioP1;P1;durP2;ratioP2;P2;SDS_P1;SDS_P2;PMS_P1;PMS_P2;Temp;Humidity;BMP_temperature;BMP_pressure;BME280_temperature;BME280_humidity;BME280_pressure;Samples;Min_cycle;Max_cycle;Signal;HPM_P1;HPM_P2
2021/09/03 03:54:24;;;;;;;25.58;15.98;;;;;;;10.63;81.36;100649.84;5014437;28;106104;-65
2021/09/03 03:56:50;;;;;;;31.35;17.60;;;;;;;10.69;81.65;100650.19;5005073;28;105888;-68
2021/09/03 03:59:15;;;;;;;27.40;17.15;;;;;;;10.76;81.41;100646.72;5004768;28;106242;-66
2021/09/03 04:01:40;;;;;;;33.40;19.90;;;;;;;10.83;81.52;100642.44;5004365;28;106762;-66
2021/09/03 04:04:05;;;;;;;32.60;18.58;;;;;;;10.91;81.67;100635.47;5004295;28;106134;-64
2021/09/03 04:06:31;;;;;;;29.90;18.52;;;;;;;10.99;81.69;100631.00;5004516;28;106085;-64
2021/09/03 04:08:56;;;;;;;30.92;18.75;;;;;;;11.07;82.25;100635.53;5004098;28;106162;-64
2021/09/03 04:11:22;;;;;;;27.30;18.48;;;;;;;11.15;82.21;100638.22;5004200;28;106067;-64
2021/09/03 04:13:47;;;;;;;29.02;17.85;;;;;;;11.24;82.70;100636.38;4995041;28;106275;-64
2021/09/03 04:16:12;;;;;;;34.22;18.73;;;;;;;11.32;82.37;100627.56;4985111;28;106091;-64
2021/09/03 04:18:39;;;;;;;32.28;18.75;;;;;;;11.37;82.32;100625.22;4983650;28;106240;-64
2021/09/03 04:21:05;;;;;;;27.27;17.75;;;;;;;11.44;82.34;100623.59;4983467;28;107359;-64
2021/09/03 04:23:31;;;;;;;27.65;17.48;;;;;;;11.49;82.62;100621.22;4982556;28;105761;-66
2021/09/03 04:25:57;;;;;;;29.80;18.75;;;;;;;11.56;81.96;100626.75;4984330;28;106075;-65
2021/09/03 04:28:22;;;;;;;28.40;18.77;;;;;;;11.62;82.65;100620.75;4984332;28;106679;-66
2021/09/03 04:30:47;;;;;;;26.00;17.42;;;;;;;11.68;82.15;100625.41;4984108;28;106121;-64
2021/09/03 04:33:13;;;;;;;27.27;17.05;;;;;;;11.75;82.65;100628.25;4983669;28;106544;-66
2021/09/03 04:35:38;;;;;;;38.78;26.85;;;;;;;11.84;82.70;100627.25;4984779;28;106151;-67
2021/09/03 04:38:03;;;;;;;32.42;22.50;;;;;;;11.91;82.61;100614.06;4984065;28;106152;-65
2021/09/03 04:40:29;;;;;;;25.40;16.70;;;;;;;12.00;82.78;100620.25;4984056;28;106053;-65
2021/09/03 04:42:54;;;;;;;25.60;16.73;;;;;;;12.07;82.91;100615.06;4983371;28;106116;-66
2021/09/03 04:45:19;;;;;;;24.88;16.73;;;;;;;12.16;82.46;100616.72;4979306;28;106382;-66
2021/09/03 04:47:45;;;;;;;27.58;18.90;;;;;;;12.24;82.93;100607.88;4982233;28;106193;-64
2021/09/03 04:50:11;;;;;;;27.73;18.52;;;;;;;12.32;82.75;100619.34;4972438;28;106755;-66
2021/09/03 04:52:37;;;;;;;25.08;16.92;;;;;;;12.41;82.95;100616.66;4975241;28;106426;-66
2021/09/03 04:55:03;;;;;;;23.42;15.18;;;;;;;12.48;82.95;100621.16;4980746;28;106517;-66
2021/09/03 04:57:28;;;;;;;24.40;15.48;;;;;;;12.58;82.59;100622.81;4978725;28;106285;-66
2021/09/03 04:59:54;;;;;;;19.58;14.13;;;;;;;12.67;82.84;100629.75;4978768;28;105967;-66
2021/09/03 05:02:19;;;;;;;21.35;15.32;;;;;;;12.72;82.72;100624.72;4982822;28;105983;-66
2021/09/03 05:04:44;;;;;;;22.80;15.20;;;;;;;12.78;82.74;100624.06;4975785;28;106382;-65
2021/09/03 05:07:10;;;;;;;19.98;14.18;;;;;;;12.89;82.58;100632.69;4969615;28;107566;-65
2021/09/03 05:09:36;;;;;;;21.73;14.70;;;;;;;12.98;82.64;100631.63;4968060;28;106697;-65
2021/09/03 05:12:01;;;;;;;22.73;14.90;;;;;;;13.08;82.80;100626.91;4967404;28;105967;-65
2021/09/03 05:14:26;;;;;;;22.45;14.27;;;;;;;13.20;82.95;100625.50;4969692;28;105991;-65
2021/09/03 05:16:52;;;;;;;20.88;14.20;;;;;;;13.34;82.88;100628.41;4969050;28;106090;-65
2021/09/03 05:19:17;;;;;;;21.98;14.25;;;;;;;13.46;82.83;100623.50;4969296;28;106161;-67
2021/09/03 05:21:42;;;;;;;22.10;13.20;;;;;;;13.61;83.03;100621.72;4969298;28;106463;-65
2021/09/03 05:24:08;;;;;;;18.48;12.90;;;;;;;13.76;82.84;100623.59;4970770;28;105943;-65
2021/09/03 05:26:33;;;;;;;18.42;13.40;;;;;;;13.87;82.50;100621.34;4968485;28;106251;-65
2021/09/03 05:28:59;;;;;;;16.58;12.25;;;;;;;14.02;82.62;100624.06;4969218;28;105931;-66
2021/09/03 05:31:24;;;;;;;17.55;13.15;;;;;;;14.18;82.71;100619.53;4968739;28;106403;-66
2021/09/03 05:33:49;;;;;;;15.65;11.73;;;;;;;14.33;82.54;100625.72;4969467;28;105946;-67
2021/09/03 05:36:15;;;;;;;22.83;13.10;;;;;;;14.47;82.29;100626.75;4969753;28;106066;-68
2021/09/03 05:38:40;;;;;;;20.27;13.15;;;;;;;14.62;82.00;100620.56;4968947;28;106108;-68
2021/09/03 05:41:06;;;;;;;18.00;12.25;;;;;;;14.77;82.02;100620.56;4967792;28;106706;-67
2021/09/03 05:43:31;;;;;;;20.48;12.73;;;;;;;14.91;81.69;100617.00;4968914;28;106151;-67
2021/09/03 05:45:57;;;;;;;31.08;20.80;;;;;;;15.06;81.63;100614.28;4968552;28;106236;-67
2021/09/03 05:48:22;;;;;;;27.63;21.83;;;;;;;15.22;81.72;100607.88;4968458;28;107199;-67
2021/09/03 05:50:48;;;;;;;22.00;12.63;;;;;;;15.37;81.21;100618.56;4968680;28;106103;-67
2021/09/03 05:53:13;;;;;;;19.23;11.65;;;;;;;15.47;81.01;100611.00;4968553;28;106186;-67
2021/09/03 05:55:39;;;;;;;19.50;11.75;;;;;;;15.60;80.73;100612.16;4968583;28;106209;-67
2021/09/03 05:58:04;;;;;;;14.95;11.48;;;;;;;15.76;80.29;100609.22;4968192;28;106140;-66
2021/09/03 06:00:31;;;;;;;15.65;11.45;;;;;;;15.89;80.22;100609.31;4965375;28;106139;-67
2021/09/03 06:02:57;;;;;;;17.95;11.45;;;;;;;16.04;80.23;100605.72;4968074;28;106106;-67
2021/09/03 06:05:23;;;;;;;15.43;10.75;;;;;;;16.17;79.89;100608.50;4968988;28;106281;-68
2021/09/03 06:07:48;;;;;;;21.02;11.25;;;;;;;16.29;79.25;100603.38;4963503;28;107611;-68
2021/09/03 06:10:13;;;;;;;16.75;10.52;;;;;;;16.43;79.22;100598.94;4960973;28;106281;-67
2021/09/03 06:12:39;;;;;;;28.35;17.70;;;;;;;16.63;79.20;100608.94;4968769;28;106066;-67
2021/09/03 06:15:09;;;;;;;45.38;35.45;;;;;;;16.82;79.32;100607.38;4967676;28;106352;-67
2021/09/03 06:17:35;;;;;;;13.23;10.10;;;;;;;16.98;78.45;100617.00;4967394;28;106057;-70
2021/09/03 06:20:01;;;;;;;14.10;9.75;;;;;;;17.08;77.84;100610.16;4968127;28;106127;-67
2021/09/03 06:22:26;;;;;;;16.80;10.10;;;;;;;17.23;77.82;100615.38;4969705;28;105938;-67
2021/09/03 06:24:52;;;;;;;15.10;9.70;;;;;;;17.35;77.24;100618.31;4968855;28;106160;-67
2021/09/03 06:27:17;;;;;;;14.57;9.43;;;;;;;17.50;77.30;100610.03;4969442;28;106122;-67
2021/09/03 06:29:43;;;;;;;18.00;10.35;;;;;;;17.64;76.69;100607.38;4968664;28;106039;-65
2021/09/03 06:32:12;;;;;;;13.82;9.20;;;;;;;17.76;76.55;100608.41;4968695;28;108433;-67
2021/09/03 06:34:46;;;;;;;14.75;9.10;;;;;;;17.96;76.06;100600.34;4966645;28;106098;-66
2021/09/03 06:37:11;;;;;;;15.35;9.10;;;;;;;18.14;76.07;100597.00;4969195;28;106186;-67
2021/09/03 06:39:37;;;;;;;13.38;8.57;;;;;;;18.36;75.73;100591.34;4968581;28;106313;-66
2021/09/03 06:42:04;;;;;;;16.60;10.45;;;;;;;18.40;74.11;100590.69;4969719;28;106008;-66
2021/09/03 06:44:30;;;;;;;14.02;9.25;;;;;;;18.39;73.77;100596.31;4967873;28;106170;-67
2021/09/03 06:46:55;;;;;;;12.27;8.90;;;;;;;18.34;72.99;100590.72;4968524;28;106182;-67
2021/09/03 06:49:21;;;;;;;13.52;8.52;;;;;;;18.31;72.64;100583.06;4968294;28;106144;-68
2021/09/03 06:51:46;;;;;;;13.65;8.90;;;;;;;18.27;72.50;100578.09;4969888;28;105716;-68
2021/09/03 06:54:12;;;;;;;12.80;9.73;;;;;;;18.29;72.18;100588.66;4969025;28;106088;-67
2021/09/03 06:56:37;;;;;;;10.90;8.75;;;;;;;18.42;73.20;100575.13;4968920;28;105849;-67
2021/09/03 06:59:03;;;;;;;12.85;9.60;;;;;;;18.52;72.49;100590.88;4965605;28;106019;-67
2021/09/03 07:01:29;;;;;;;13.38;8.55;;;;;;;18.58;71.92;100584.63;4967792;28;106536;-67
2021/09/03 07:03:54;;;;;;;19.15;8.95;;;;;;;18.73;71.94;100591.63;4968629;28;106243;-67
2021/09/03 07:06:20;;;;;;;13.98;9.02;;;;;;;18.89;71.68;100574.97;4968440;28;106729;-64
2021/09/03 07:08:45;;;;;;;10.95;7.97;;;;;;;18.91;70.80;100578.25;4967752;28;106165;-64
2021/09/03 07:11:11;;;;;;;11.10;8.45;;;;;;;19.08;70.85;100588.56;4968922;28;106222;-64
2021/09/03 07:13:36;;;;;;;13.23;7.82;;;;;;;19.26;70.96;100591.34;4968268;28;106623;-66
2021/09/03 07:16:02;;;;;;;11.02;7.85;;;;;;;19.56;70.59;100590.72;4965327;28;106090;-66
2021/09/03 07:18:27;;;;;;;12.32;7.97;;;;;;;19.88;70.99;100587.97;4966177;28;108250;-65
2021/09/03 07:20:53;;;;;;;14.38;8.18;;;;;;;20.21;70.40;100581.41;4968790;28;106020;-66
2021/09/03 07:23:18;;;;;;;11.18;7.40;;;;;;;20.52;69.75;100576.09;4964528;28;106517;-64
2021/09/03 07:25:43;;;;;;;11.25;7.15;;;;;;;20.82;69.11;100580.72;4967045;28;106663;-64
2021/09/03 07:28:09;;;;;;;12.32;7.82;;;;;;;21.14;68.56;100581.31;4967871;28;106004;-64
2021/09/03 07:30:34;;;;;;;16.25;7.38;;;;;;;21.41;67.64;100584.44;4968930;28;105865;-65
2021/09/03 07:33:00;;;;;;;8.98;7.15;;;;;;;21.66;67.07;100588.06;4968601;28;106183;-65
2021/09/03 07:35:25;;;;;;;12.98;7.45;;;;;;;21.91;66.45;100580.53;4968296;28;106053;-66
2021/09/03 07:37:51;;;;;;;11.15;7.32;;;;;;;22.23;65.86;100582.03;4968055;28;106121;-65
2021/09/03 07:40:17;;;;;;;10.65;6.38;;;;;;;22.40;64.76;100571.28;4968181;28;105929;-66
2021/09/03 07:42:43;;;;;;;12.88;7.75;;;;;;;22.53;63.12;100571.03;4967494;28;105818;-66
2021/09/03 07:45:08;;;;;;;9.38;6.97;;;;;;;22.28;61.36;100572.13;4967813;28;105842;-62
2021/09/03 07:47:34;;;;;;;10.40;6.60;;;;;;;22.23;62.48;100569.28;4967869;28;105913;-66
2021/09/03 07:49:59;;;;;;;14.02;7.28;;;;;;;22.37;61.94;100560.94;4967950;28;106464;-67
2021/09/03 07:52:24;;;;;;;10.68;7.60;;;;;;;22.37;60.83;100569.06;4964700;28;106126;-66
2021/09/03 07:54:50;;;;;;;10.55;7.20;;;;;;;22.26;59.86;100568.81;4968025;28;105935;-66
2021/09/03 07:57:15;;;;;;;13.40;7.25;;;;;;;22.15;60.04;100569.66;4967371;28;105900;-65
2021/09/03 07:59:40;;;;;;;10.07;6.90;;;;;;;22.28;60.50;100568.56;4968508;28;105896;-65
2021/09/03 08:02:06;;;;;;;10.40;6.68;;;;;;;22.65;61.40;100566.38;4968050;28;106134;-65
2021/09/03 08:04:31;;;;;;;10.00;7.10;;;;;;;23.05;60.20;100572.00;4967092;28;105986;-65
2021/09/03 08:06:57;;;;;;;11.35;7.45;;;;;;;23.15;58.01;100566.78;4966462;28;106129;-65
2021/09/03 08:09:23;;;;;;;9.38;7.15;;;;;;;23.10;57.30;100569.38;4967893;28;106731;-65
2021/09/03 08:11:49;;;;;;;9.90;6.07;;;;;;;23.34;58.54;100561.94;4967062;28;106187;-66
2021/09/03 08:14:15;;;;;;;10.55;6.53;;;;;;;23.73;57.37;100569.34;4967468;28;106045;-65
2021/09/03 08:16:41;;;;;;;11.80;6.70;;;;;;;23.94;56.52;100560.44;4967361;28;106116;-65
2021/09/03 08:19:07;;;;;;;9.77;6.68;;;;;;;24.28;55.68;100565.00;4968570;28;105780;-66
2021/09/03 08:21:32;;;;;;;11.73;6.45;;;;;;;24.65;55.34;100551.56;4967604;28;106143;-66
2021/09/03 08:23:58;;;;;;;12.75;6.05;;;;;;;24.96;53.83;100561.94;4967433;28;105810;-66
2021/09/03 08:26:23;;;;;;;9.73;5.80;;;;;;;25.28;53.10;100559.25;4967276;28;105946;-66
2021/09/03 08:28:48;;;;;;;8.52;6.00;;;;;;;25.74;52.89;100558.84;4968320;28;105981;-66
2021/09/03 08:31:14;;;;;;;8.88;6.10;;;;;;;26.29;51.68;100547.69;4965386;28;106296;-66
2021/09/03 08:33:40;;;;;;;9.60;5.82;;;;;;;26.32;48.37;100552.59;4967128;28;106093;-67
2021/09/03 08:36:05;;;;;;;8.38;5.70;;;;;;;26.63;49.09;100548.06;4967496;28;105901;-66
2021/09/03 08:38:31;;;;;;;7.43;5.55;;;;;;;27.29;48.08;100553.94;4967856;28;106096;-66
2021/09/03 08:40:57;;;;;;;9.25;6.07;;;;;;;27.44;45.66;100548.47;4969707;28;107535;-65
2021/09/03 08:43:23;;;;;;;10.05;7.15;;;;;;;27.85;44.92;100550.34;4970298;28;106074;-68
2021/09/03 08:45:49;;;;;;;9.75;6.85;;;;;;;28.62;43.37;100543.75;4970279;28;106342;-68
2021/09/03 08:48:19;;;;;;;9.68;6.50;;;;;;;30.28;40.98;100546.72;4971448;28;105952;-67
2021/09/03 08:50:49;;;;;;;9.18;6.30;;;;;;;32.48;36.43;100543.31;4970712;28;106067;-66
2021/09/03 08:53:16;;;;;;;15.40;5.63;;;;;;;33.10;35.00;100545.50;4968912;28;106200;-67
2021/09/03 08:55:47;;;;;;;8.85;5.57;;;;;;;34.66;31.40;100546.47;4969911;28;106156;-65
2021/09/03 08:58:13;;;;;;;9.13;5.70;;;;;;;34.95;31.20;100553.34;4971588;28;106124;-66
2021/09/03 09:00:39;;;;;;;7.20;4.85;;;;;;;36.29;28.90;100543.13;4970269;28;106077;-69
2021/09/03 09:03:15;;;;;;;8.70;4.85;;;;;;;37.69;26.85;100547.44;4970379;28;106575;-70
2021/09/03 09:05:43;;;;;;;7.13;5.20;;;;;;;38.60;25.45;100545.53;4970234;28;106194;-69
2021/09/03 09:08:09;;;;;;;7.40;5.13;;;;;;;40.18;23.13;100523.84;4970877;28;106396;-71
2021/09/03 09:10:35;;;;;;;6.82;4.43;;;;;;;41.69;21.23;100539.94;4970025;28;106330;-67
2021/09/03 09:13:00;;;;;;;7.85;4.80;;;;;;;42.60;19.98;100542.09;4969681;28;105967;-68
2021/09/03 09:15:26;;;;;;;7.18;4.95;;;;;;;39.88;21.69;100540.25;4969731;28;106136;-67
2021/09/03 09:17:52;;;;;;;8.68;5.45;;;;;;;39.32;22.68;100535.66;4970611;28;106002;-67
2021/09/03 09:20:17;;;;;;;8.20;5.82;;;;;;;41.24;20.91;100530.38;4969987;28;106125;-65
2021/09/03 09:22:51;;;;;;;7.03;5.25;;;;;;;40.43;19.79;100521.56;4969920;28;106138;-65
2021/09/03 09:25:19;;;;;;;9.20;5.40;;;;;;;39.68;20.67;100528.22;4970265;28;105855;-64
2021/09/03 09:27:47;;;;;;;9.05;5.60;;;;;;;39.84;20.59;100522.63;4970480;28;106499;-65
2021/09/03 09:30:27;;;;;;;6.13;4.60;;;;;;;41.35;20.15;100519.38;4970246;28;106146;-67
2021/09/03 09:33:14;;;;;;;6.32;4.82;;;;;;;43.26;18.38;100522.00;4969917;28;106017;-68
2021/09/03 09:35:42;;;;;;;7.35;4.45;;;;;;;43.51;17.51;100532.66;4969617;28;106100;-68
2021/09/03 09:38:08;;;;;;;14.88;5.32;;;;;;;42.76;18.41;100523.09;4976573;28;106349;-68
2021/09/03 09:40:47;;;;;;;9.52;4.63;;;;;;;41.46;19.32;100520.38;4987016;28;106783;-67
2021/09/03 09:43:40;;;;;;;11.60;5.00;;;;;;;40.60;20.36;100506.41;4989457;28;105927;-68
2021/09/03 09:46:24;;;;;;;6.60;4.50;;;;;;;40.35;19.77;100508.63;4989668;28;105943;-67
2021/09/03 09:48:49;;;;;;;8.05;4.60;;;;;;;40.76;19.23;100511.91;4989959;28;106037;-66
2021/09/03 09:51:29;;;;;;;8.82;5.18;;;;;;;41.52;18.47;100504.13;4986632;28;105937;-66
2021/09/03 09:53:57;;;;;;;8.63;4.82;;;;;;;39.51;20.20;100505.09;4968505;28;105922;-68
2021/09/03 09:56:23;;;;;;;7.10;4.82;;;;;;;39.66;20.07;100508.25;4969615;28;105992;-69
2021/09/03 09:58:51;;;;;;;7.53;4.28;;;;;;;42.39;17.80;100503.41;4978539;28;106128;-69
2021/09/03 10:01:20;;;;;;;7.95;4.57;;;;;;;42.17;17.58;100491.09;4988161;28;106183;-68
2021/09/03 10:03:50;;;;;;;9.70;4.47;;;;;;;42.35;17.14;100491.38;4980302;28;106080;-68
2021/09/03 10:06:18;;;;;;;8.77;4.57;;;;;;;44.29;15.90;100486.69;4969339;28;106002;-68
2021/09/03 10:08:46;;;;;;;6.97;4.80;;;;;;;46.12;14.46;100480.41;4970452;28;106270;-68
2021/09/03 10:11:13;;;;;;;7.68;3.80;;;;;;;47.45;13.57;100484.44;4969234;28;106984;-68
2021/09/03 10:13:39;;;;;;;7.75;4.35;;;;;;;48.06;12.53;100473.72;4976833;28;106126;-69
2021/09/03 10:16:05;;;;;;;7.50;3.80;;;;;;;48.26;12.39;100463.41;4971344;28;106077;-67
2021/09/03 10:18:32;;;;;;;5.20;3.72;;;;;;;47.24;12.95;100468.47;4970162;28;105803;-68
2021/09/03 10:20:59;;;;;;;6.82;4.30;;;;;;;47.52;13.00;100471.47;4969347;28;106226;-68
2021/09/03 10:23:47;;;;;;;7.90;4.10;;;;;;;48.40;11.89;100468.06;4969553;28;106080;-69
2021/09/03 10:26:13;;;;;;;7.28;4.18;;;;;;;48.81;11.68;100466.28;4968461;28;105872;-68
2021/09/03 10:28:38;;;;;;;8.20;3.85;;;;;;;49.35;11.59;100459.75;4969944;28;105870;-69
2021/09/03 10:31:06;;;;;;;4.65;3.42;;;;;;;49.49;11.09;100461.53;4968592;28;106219;-69
2021/09/03 10:33:36;;;;;;;6.57;4.25;;;;;;;50.23;10.51;100456.84;4968606;28;105800;-68
2021/09/03 10:36:02;;;;;;;6.90;4.10;;;;;;;50.59;10.53;100451.16;4968435;28;105914;-67
2021/09/03 10:38:33;;;;;;;7.93;4.10;;;;;;;50.43;10.32;100459.63;4969221;28;106046;-67
2021/09/03 10:41:01;;;;;;;5.22;4.07;;;;;;;50.97;10.58;100452.72;4968613;28;106498;-68
2021/09/03 10:43:43;;;;;;;6.20;4.20;;;;;;;49.30;11.26;100454.59;4968323;28;106509;-70
2021/09/03 10:46:12;;;;;;;7.38;4.10;;;;;;;47.85;12.48;100466.34;4968555;28;106085;-70
2021/09/03 10:48:38;;;;;;;6.43;3.72;;;;;;;48.29;12.33;100450.47;4969817;28;106149;-71
2021/09/03 10:51:05;;;;;;;8.05;3.92;;;;;;;48.75;11.69;100446.19;4969168;28;106157;-67
2021/09/03 10:53:38;;;;;;;5.45;4.07;;;;;;;50.03;10.95;100435.00;4968598;28;106102;-67
2021/09/03 10:56:09;;;;;;;6.40;3.70;;;;;;;49.84;10.85;100436.59;4968367;28;106520;-67
2021/09/03 10:58:57;;;;;;;5.97;3.70;;;;;;;48.14;11.48;100432.13;4969570;28;105985;-67
2021/09/03 11:01:26;;;;;;;6.72;3.70;;;;;;;49.24;11.12;100426.00;4968741;28;106091;-68
2021/09/03 11:03:51;;;;;;;6.00;4.07;;;;;;;50.85;9.84;100410.88;4967930;28;106613;-68
2021/09/03 11:06:26;;;;;;;11.90;3.93;;;;;;;52.20;9.43;100423.81;4968695;28;106683;-71
2021/09/03 11:08:53;;;;;;;5.75;3.70;;;;;;;52.07;9.33;100426.63;4969583;28;105984;-70
2021/09/03 11:11:22;;;;;;;6.07;3.70;;;;;;;51.71;9.48;100414.28;4969017;28;106208;-68
2021/09/03 11:13:49;;;;;;;10.10;3.92;;;;;;;51.61;9.31;100421.06;4967763;28;106619;-69
2021/09/03 11:16:39;;;;;;;7.05;3.95;;;;;;;51.42;8.75;100409.41;4968071;28;106655;-70
2021/09/03 11:19:10;;;;;;;6.35;3.72;;;;;;;51.57;8.66;100414.69;4968750;28;106101;-70
2021/09/03 11:21:38;;;;;;;7.93;3.72;;;;;;;51.80;9.03;100419.31;4965899;28;106116;-67
2021/09/03 11:24:05;;;;;;;5.18;3.33;;;;;;;48.42;10.48;100409.13;4967431;28;106403;-67
2021/09/03 11:26:32;;;;;;;6.57;3.97;;;;;;;44.43;12.99;100402.50;4967921;28;106058;-68
2021/09/03 11:29:04;;;;;;;11.63;4.03;;;;;;;45.33;12.96;100399.00;4968808;28;105953;-70
2021/09/03 11:31:30;;;;;;;6.38;3.58;;;;;;;47.26;11.66;100398.38;4968366;28;106259;-69
2021/09/03 11:33:57;;;;;;;5.85;3.78;;;;;;;45.70;12.11;100385.63;4967890;28;106315;-69
2021/09/03 11:36:23;;;;;;;7.40;4.05;;;;;;;43.91;13.71;100387.91;4968298;28;105955;-69
2021/09/03 11:38:53;;;;;;;7.45;4.18;;;;;;;40.85;15.79;100374.84;4968902;28;105875;-69
2021/09/03 11:41:18;;;;;;;7.47;4.15;;;;;;;41.76;15.53;100382.63;4967873;28;106215;-71
2021/09/03 11:43:44;;;;;;;7.30;4.05;;;;;;;42.38;14.86;100376.66;4967790;28;106047;-68
2021/09/03 11:46:20;;;;;;;6.93;3.85;;;;;;;44.02;13.93;100380.31;4968044;28;107811;-70
2021/09/03 11:48:47;;;;;;;9.20;4.13;;;;;;;45.69;12.38;100370.78;4968813;28;106305;-69
2021/09/03 11:51:22;;;;;;;7.53;4.20;;;;;;;46.27;11.84;100368.53;4967597;28;106181;-68
2021/09/03 11:53:48;;;;;;;8.02;4.00;;;;;;;46.50;11.86;100369.19;4967313;28;106908;-68
2021/09/03 11:56:16;;;;;;;5.28;3.65;;;;;;;45.95;11.87;100368.69;4967875;28;106232;-68
2021/09/03 11:58:43;;;;;;;7.70;4.03;;;;;;;44.58;13.00;100363.22;4969678;28;105911;-67
2021/09/03 12:01:10;;;;;;;6.63;4.30;;;;;;;42.65;14.24;100367.31;4974697;28;106144;-69
2021/09/03 12:03:44;;;;;;;7.45;4.55;;;;;;;39.84;16.18;100366.47;4975768;28;106264;-70
2021/09/03 12:06:15;;;;;;;7.47;4.10;;;;;;;38.06;18.25;100361.16;4982398;28;106138;-68
2021/09/03 12:08:41;;;;;;;6.72;4.18;;;;;;;36.71;19.24;100357.25;4956654;28;106474;-67
2021/09/03 12:11:12;;;;;;;7.88;4.50;;;;;;;35.90;20.43;100345.63;4979994;28;106425;-67
2021/09/03 12:13:44;;;;;;;7.10;4.82;;;;;;;35.25;21.52;100351.34;4974404;28;106904;-67
2021/09/03 12:16:19;;;;;;;7.22;4.85;;;;;;;33.97;22.30;100349.00;4980758;28;106303;-67
2021/09/03 12:18:50;;;;;;;9.27;4.65;;;;;;;32.87;23.73;100340.53;4972245;28;106626;-67
2021/09/03 12:21:15;;;;;;;6.53;4.28;;;;;;;32.18;24.58;100341.72;4987730;28;105927;-68
2021/09/03 12:24:02;;;;;;;6.88;4.28;;;;;;;31.69;25.22;100336.72;4976175;28;106035;-67
2021/09/03 12:26:57;;;;;;;5.40;4.63;;;;;;;31.16;26.18;100338.03;4978848;28;106133;-67
2021/09/03 12:29:30;;;;;;;5.75;4.55;;;;;;;30.94;26.89;100341.47;4986515;28;106245;-67
2021/09/03 12:31:58;;;;;;;8.35;5.20;;;;;;;30.90;26.94;100343.19;4978068;28;106021;-68
2021/09/03 12:34:29;;;;;;;7.05;4.95;;;;;;;30.91;27.21;100342.09;4978287;28;106913;-67
